createdAt,value
2024-02-02T00:01:24.506Z,44.80
2024-02-02T00:03:55.371Z,44.75
2024-02-02T00:06:23.747Z,44.86
2024-02-02T00:08:52.644Z,44.73
2024-02-02T00:11:20.927Z,44.81
2024-02-02T00:13:49.303Z,44.72
2024-02-02T00:16:17.451Z,44.87
2024-02-02T00:18:45.797Z,45.01
2024-02-02T00:21:14.171Z,44.80
2024-02-02T00:23:42.708Z,45.09
2024-02-02T00:26:11.034Z,45.06
2024-02-02T00:28:39.732Z,45.20
2024-02-02T00:31:09.281Z,45.33
2024-02-02T00:33:37.647Z,45.01
2024-02-02T00:36:06.543Z,45.09
2024-02-02T00:38:35.147Z,45.27
2024-02-02T00:41:04.154Z,45.27
2024-02-02T00:43:33.498Z,45.40
2024-02-02T00:46:02.789Z,45.45
2024-02-02T00:48:33.202Z,45.57
2024-02-02T00:51:04.610Z,45.50
2024-02-02T00:53:34.493Z,45.45
2024-02-02T00:56:03.750Z,45.61
2024-02-02T00:58:33.829Z,45.49
2024-02-02T01:01:05.852Z,45.85
2024-02-02T01:03:39.009Z,45.72
2024-02-02T01:06:07.956Z,45.71
2024-02-02T01:08:36.297Z,45.47
2024-02-02T01:11:05.138Z,45.93
2024-02-02T01:13:35.562Z,45.52
2024-02-02T01:16:06.791Z,45.52
2024-02-02T01:18:36.024Z,45.51
2024-02-02T01:21:04.980Z,45.61
2024-02-02T01:23:34.172Z,45.59
2024-02-02T01:26:02.563Z,45.82
2024-02-02T01:28:32.902Z,45.70
2024-02-02T01:31:02.500Z,45.99
2024-02-02T01:33:31.371Z,46.11
2024-02-02T01:36:00.268Z,45.90
2024-02-02T01:38:28.727Z,46.19
2024-02-02T01:40:56.978Z,46.07
2024-02-02T01:43:26.728Z,46.06
2024-02-02T01:45:55.941Z,46.23
2024-02-02T01:48:24.342Z,46.41
2024-02-02T01:50:52.806Z,46.46
2024-02-02T01:53:21.191Z,46.30
2024-02-02T01:55:49.365Z,46.13
2024-02-02T01:58:17.721Z,46.30
2024-02-02T02:00:46.158Z,46.49
2024-02-02T02:03:15.202Z,46.83
2024-02-02T02:05:43.772Z,46.67
2024-02-02T02:08:13.029Z,46.89
2024-02-02T02:10:41.244Z,46.88
2024-02-02T02:13:09.492Z,46.73
2024-02-02T02:15:39.001Z,46.96
2024-02-02T02:18:07.520Z,46.87
2024-02-02T02:20:36.459Z,46.76
2024-02-02T02:23:05.545Z,46.72
2024-02-02T02:25:35.019Z,46.96
2024-02-02T02:28:05.480Z,46.81
2024-02-02T02:30:38.521Z,47.08
2024-02-02T02:33:07.619Z,46.69
2024-02-02T02:35:37.950Z,46.78
2024-02-02T02:38:06.644Z,46.79
2024-02-02T02:40:35.339Z,47.16
2024-02-02T02:43:04.275Z,47.25
2024-02-02T02:45:33.573Z,47.29
2024-02-02T02:48:02.517Z,47.18
2024-02-02T02:50:31.792Z,47.65
2024-02-02T02:53:00.335Z,47.28
2024-02-02T02:55:29.195Z,47.60
2024-02-02T02:57:57.416Z,47.70
2024-02-02T03:00:30.069Z,47.76
2024-02-02T03:03:02.245Z,47.58
2024-02-02T03:05:32.897Z,47.60
2024-02-02T03:08:02.242Z,47.73
2024-02-02T03:10:30.932Z,47.63
2024-02-02T03:13:00.030Z,47.30
2024-02-02T03:15:34.080Z,47.61
2024-02-02T03:18:04.086Z,47.38
2024-02-02T03:20:33.135Z,47.68
2024-02-02T03:23:02.485Z,47.40
2024-02-02T03:25:30.990Z,47.40
2024-02-02T03:28:04.221Z,47.64
2024-02-02T03:30:35.788Z,47.79
2024-02-02T03:33:05.227Z,47.67
2024-02-02T03:35:35.616Z,47.58
2024-02-02T03:38:07.498Z,47.88
2024-02-02T03:40:35.995Z,47.83
2024-02-02T03:43:04.324Z,47.80
2024-02-02T03:45:33.858Z,48.10
2024-02-02T03:48:02.665Z,47.88
2024-02-02T03:50:32.671Z,48.16
2024-02-02T03:53:02.621Z,48.04
2024-02-02T03:55:31.309Z,48.30
2024-02-02T03:58:00.760Z,48.18
2024-02-02T04:00:29.866Z,47.99
2024-02-02T04:02:58.136Z,48.26
2024-02-02T04:05:26.535Z,48.30
2024-02-02T04:07:54.823Z,48.01
2024-02-02T04:10:23.480Z,48.42
2024-02-02T04:12:54.652Z,47.99
2024-02-02T04:15:22.962Z,48.32
2024-02-02T04:17:51.222Z,48.10
2024-02-02T04:20:20.134Z,48.13
2024-02-02T04:22:48.337Z,48.32
2024-02-02T04:25:16.602Z,48.44
2024-02-02T04:27:45.132Z,48.37
2024-02-02T04:30:18.887Z,48.28
2024-02-02T04:32:48.064Z,48.35
2024-02-02T04:35:18.099Z,48.26
2024-02-02T04:37:46.299Z,48.38
2024-02-02T04:40:14.637Z,48.53
2024-02-02T04:42:42.899Z,48.53
2024-02-02T04:45:13.325Z,48.71
2024-02-02T04:47:41.716Z,48.42
2024-02-02T04:50:10.379Z,48.57
2024-02-02T04:52:38.793Z,48.49
2024-02-02T04:55:07.646Z,48.52
2024-02-02T04:57:36.031Z,48.53
2024-02-02T05:00:06.926Z,48.38
2024-02-02T05:02:35.445Z,48.60
2024-02-02T05:05:04.393Z,48.92
2024-02-02T05:07:35.401Z,48.85
2024-02-02T05:10:08.740Z,48.92
2024-02-02T05:12:37.323Z,49.05
2024-02-02T05:15:06.014Z,48.90
2024-02-02T05:17:34.970Z,48.89
2024-02-02T05:20:07.053Z,48.80
2024-02-02T05:22:35.897Z,48.57
2024-02-02T05:25:05.473Z,48.93
2024-02-02T05:27:34.598Z,48.85
2024-02-02T05:30:04.261Z,48.94
2024-02-02T05:32:35.222Z,48.83
2024-02-02T05:35:05.226Z,49.23
2024-02-02T05:37:35.466Z,49.05
2024-02-02T05:40:05.183Z,48.77
2024-02-02T05:42:34.971Z,48.87
2024-02-02T05:45:04.637Z,49.00
2024-02-02T05:47:34.221Z,49.38
2024-02-02T05:50:03.100Z,49.66
2024-02-02T05:52:32.065Z,50.30
2024-02-02T05:55:00.955Z,49.64
2024-02-02T05:57:32.805Z,49.60
2024-02-02T06:00:01.999Z,49.19
2024-02-02T06:02:35.028Z,49.52
2024-02-02T06:05:04.455Z,49.47
2024-02-02T06:07:34.310Z,49.38
2024-02-02T06:10:03.773Z,49.25
2024-02-02T06:12:32.863Z,49.30
2024-02-02T06:15:01.886Z,49.54
2024-02-02T06:17:30.417Z,49.45
2024-02-02T06:19:59.737Z,49.27
2024-02-02T06:22:30.750Z,49.67
2024-02-02T06:25:00.178Z,49.56
2024-02-02T06:27:32.508Z,49.58
2024-02-02T06:30:02.744Z,49.63
2024-02-02T06:32:37.005Z,49.56
2024-02-02T06:35:07.068Z,49.97
2024-02-02T06:37:35.562Z,50.05
2024-02-02T06:40:06.591Z,50.15
2024-02-02T06:42:35.281Z,50.21
2024-02-02T06:45:05.066Z,50.42
2024-02-02T06:47:34.902Z,50.23
2024-02-02T06:50:04.681Z,50.42
2024-02-02T06:52:34.983Z,50.21
2024-02-02T06:55:04.641Z,50.42
2024-02-02T06:57:34.231Z,50.26
2024-02-02T07:00:04.554Z,50.28
2024-02-02T07:02:37.063Z,50.36
2024-02-02T07:05:06.187Z,50.63
2024-02-02T07:07:34.621Z,50.52
2024-02-02T07:10:06.169Z,50.62
2024-02-02T07:12:56.959Z,50.97
2024-02-02T07:15:33.010Z,50.86
2024-02-02T07:18:02.194Z,50.82
2024-02-02T07:20:32.810Z,51.27
2024-02-02T07:23:05.905Z,51.29
2024-02-02T07:25:39.305Z,51.66
2024-02-02T07:28:09.608Z,51.06
2024-02-02T07:30:57.387Z,51.50
2024-02-02T07:33:47.318Z,51.91
2024-02-02T07:36:33.056Z,51.90
2024-02-02T07:39:01.967Z,51.96
2024-02-02T07:41:31.160Z,51.87
2024-02-02T07:44:02.325Z,52.42
2024-02-02T07:46:32.476Z,52.42
2024-02-02T07:49:01.225Z,52.12
2024-02-02T07:51:30.873Z,52.48
2024-02-02T07:54:00.314Z,52.51
2024-02-02T07:56:28.585Z,52.71
2024-02-02T07:59:00.561Z,52.81
2024-02-02T08:01:33.640Z,52.97
2024-02-02T08:04:05.643Z,52.97
2024-02-02T08:06:35.011Z,53.10
2024-02-02T08:09:04.695Z,52.99
2024-02-02T08:11:37.338Z,53.51
2024-02-02T08:14:06.395Z,53.08
2024-02-02T08:16:38.468Z,53.16
2024-02-02T08:19:07.720Z,53.46
2024-02-02T08:21:36.184Z,53.55
2024-02-02T08:24:05.949Z,53.50
2024-02-02T08:26:35.216Z,53.51
2024-02-02T08:29:04.473Z,53.28
2024-02-02T08:31:35.864Z,53.51
2024-02-02T08:34:05.790Z,53.61
2024-02-02T08:36:35.068Z,53.99
2024-02-02T08:39:04.677Z,54.08
2024-02-02T08:41:34.470Z,54.57
2024-02-02T08:44:06.660Z,54.71
2024-02-02T08:46:37.575Z,54.43
2024-02-02T08:49:07.221Z,54.42
2024-02-02T08:51:53.047Z,55.14
2024-02-02T08:54:36.077Z,54.75
2024-02-02T08:57:26.106Z,55.34
2024-02-02T08:59:55.443Z,54.89
2024-02-02T09:02:53.062Z,55.51
2024-02-02T09:05:22.715Z,55.08
2024-02-02T09:08:10.178Z,54.99
2024-02-02T09:10:44.928Z,55.60
2024-02-02T09:13:21.310Z,55.59
2024-02-02T09:15:49.601Z,55.58
2024-02-02T09:18:40.941Z,56.03
2024-02-02T09:21:10.479Z,55.85
2024-02-02T09:23:45.313Z,56.30
2024-02-02T09:26:13.783Z,56.25
2024-02-02T09:28:47.545Z,56.15
2024-02-02T09:31:27.401Z,56.72
2024-02-02T09:33:57.134Z,56.04
2024-02-02T09:36:28.692Z,56.35
2024-02-02T09:38:59.374Z,56.18
2024-02-02T09:41:37.733Z,56.39
2024-02-02T09:44:42.593Z,56.67
2024-02-02T09:47:17.530Z,55.78
2024-02-02T09:50:04.107Z,57.37
2024-02-02T09:53:03.901Z,56.67
2024-02-02T09:55:51.594Z,56.57
2024-02-02T09:58:29.380Z,56.78
2024-02-02T10:01:12.794Z,57.07
2024-02-02T10:04:12.866Z,57.40
2024-02-02T10:07:08.799Z,56.87
2024-02-02T10:09:43.343Z,56.63
2024-02-02T10:12:58.967Z,57.30
2024-02-02T10:15:53.119Z,57.61
2024-02-02T10:18:52.701Z,57.24
2024-02-02T10:22:01.955Z,57.12
2024-02-02T10:24:51.548Z,57.20
2024-02-02T10:27:35.223Z,57.20
2024-02-02T10:30:23.914Z,57.09
2024-02-02T10:33:05.258Z,56.84
2024-02-02T10:35:52.757Z,57.29
2024-02-02T10:38:36.907Z,57.33
2024-02-02T10:41:34.580Z,57.54
2024-02-02T10:44:17.877Z,57.35
2024-02-02T10:47:08.712Z,57.54
2024-02-02T10:49:53.375Z,57.85
2024-02-02T10:52:54.747Z,58.00
2024-02-02T10:55:54.456Z,57.97
2024-02-02T10:58:38.158Z,58.43
2024-02-02T11:01:25.482Z,58.29
2024-02-02T11:04:25.072Z,58.48
2024-02-02T11:07:16.931Z,58.42
2024-02-02T11:09:57.368Z,58.17
2024-02-02T11:12:35.602Z,57.79
2024-02-02T11:15:23.729Z,58.56
2024-02-02T11:18:10.061Z,58.71
2024-02-02T11:21:12.749Z,58.75
2024-02-02T11:23:48.270Z,58.47
2024-02-02T11:26:23.856Z,58.69
2024-02-02T11:29:29.585Z,59.20
2024-02-02T11:32:18.631Z,58.83
2024-02-02T11:35:12.852Z,59.30
2024-02-02T11:38:06.608Z,58.96
2024-02-02T11:40:37.373Z,59.24
2024-02-02T11:43:09.658Z,59.27
2024-02-02T11:45:41.523Z,59.18
2024-02-02T11:48:18.809Z,59.25
2024-02-02T11:50:49.689Z,59.04
2024-02-02T11:53:42.348Z,59.18
2024-02-02T11:56:34.544Z,59.29
2024-02-02T11:59:14.574Z,59.41
2024-02-02T12:01:46.016Z,58.94
2024-02-02T12:05:04.752Z,59.56
2024-02-02T12:08:08.986Z,59.72
2024-02-02T12:10:43.758Z,59.28
2024-02-02T12:13:32.758Z,59.62
2024-02-02T12:16:02.167Z,59.33
2024-02-02T12:18:30.790Z,59.33
2024-02-02T12:21:01.372Z,59.44
2024-02-02T12:23:31.003Z,59.41
2024-02-02T12:26:02.903Z,59.20
2024-02-02T12:28:31.928Z,59.50
2024-02-02T12:31:02.610Z,59.14
2024-02-02T12:33:32.680Z,59.61
2024-02-02T12:36:07.516Z,59.42
2024-02-02T12:38:41.093Z,59.62
2024-02-02T12:41:10.604Z,59.04
2024-02-02T12:43:38.753Z,59.18
2024-02-02T12:46:07.123Z,59.62
2024-02-02T12:48:36.095Z,59.30
2024-02-02T12:51:07.482Z,59.11
2024-02-02T12:53:37.180Z,58.92
2024-02-02T12:56:06.759Z,58.75
2024-02-02T12:58:35.790Z,58.88
2024-02-02T13:01:07.389Z,59.03
2024-02-02T13:03:43.675Z,59.06
2024-02-02T13:06:15.815Z,59.33
2024-02-02T13:08:44.801Z,59.41
2024-02-02T13:11:27.236Z,59.95
2024-02-02T13:14:05.774Z,59.68
2024-02-02T13:16:35.659Z,59.70
2024-02-02T13:19:09.001Z,59.95
2024-02-02T13:21:44.483Z,59.59
2024-02-02T13:24:22.102Z,59.71
2024-02-02T13:26:53.137Z,60.05
2024-02-02T13:29:28.298Z,60.04
2024-02-02T13:32:00.233Z,60.05
2024-02-02T13:34:34.868Z,60.03
2024-02-02T13:37:08.009Z,60.12
2024-02-02T13:39:36.698Z,60.22
2024-02-02T13:42:09.831Z,60.00
2024-02-02T13:44:38.140Z,60.39
2024-02-02T13:47:14.835Z,60.22
2024-02-02T13:49:47.054Z,60.27
2024-02-02T13:52:15.441Z,59.78
2024-02-02T13:54:45.234Z,59.84
2024-02-02T13:57:14.245Z,59.62
2024-02-02T13:59:43.054Z,59.91
2024-02-02T14:02:11.747Z,59.45
2024-02-02T14:04:40.807Z,59.31
2024-02-02T14:07:20.526Z,59.02
2024-02-02T14:09:50.335Z,58.42
2024-02-02T14:12:19.419Z,58.55
2024-02-02T14:14:47.800Z,58.07
2024-02-02T14:17:16.283Z,58.03
2024-02-02T14:19:45.643Z,57.91
2024-02-02T14:22:14.271Z,57.75
2024-02-02T14:24:54.395Z,57.19
2024-02-02T14:27:38.962Z,57.13
2024-02-02T14:30:09.895Z,57.09
2024-02-02T14:32:39.304Z,56.90
2024-02-02T14:35:11.881Z,56.51
2024-02-02T14:37:40.865Z,56.59
2024-02-02T14:40:12.861Z,56.43
2024-02-02T14:42:42.677Z,56.52
2024-02-02T14:45:13.173Z,56.20
2024-02-02T14:47:41.482Z,56.08
2024-02-02T14:50:10.830Z,55.68
2024-02-02T14:52:39.091Z,55.72
2024-02-02T14:55:09.360Z,55.77
2024-02-02T14:57:40.936Z,55.55
2024-02-02T15:03:07.179Z,55.05
2024-02-02T15:05:36.221Z,55.47
2024-02-02T15:08:06.414Z,55.18
2024-02-02T15:10:37.416Z,54.82
2024-02-02T15:13:06.273Z,54.42
2024-02-02T15:15:35.147Z,54.50
2024-02-02T15:18:05.859Z,54.04
2024-02-02T15:20:35.167Z,54.31
2024-02-02T15:23:04.800Z,54.02
2024-02-02T15:25:34.128Z,53.98
2024-02-02T15:28:03.066Z,53.57
2024-02-02T15:30:32.855Z,53.41
2024-02-02T15:33:03.247Z,53.30
2024-02-02T15:35:33.359Z,53.07
2024-02-02T15:38:03.340Z,52.99
2024-02-02T15:40:32.109Z,52.96
2024-02-02T15:43:00.660Z,52.84
2024-02-02T15:45:29.811Z,53.29
2024-02-02T15:47:58.319Z,53.27
2024-02-02T15:50:26.605Z,53.12
2024-02-02T15:52:54.840Z,53.15
2024-02-02T15:55:23.042Z,53.10
2024-02-02T15:57:53.399Z,53.30
2024-02-02T16:00:22.490Z,53.21
2024-02-02T16:02:53.098Z,53.15
2024-02-02T16:05:25.241Z,53.24
2024-02-02T16:07:54.397Z,53.49
2024-02-02T16:10:23.864Z,53.05
2024-02-02T16:12:52.705Z,53.14
2024-02-02T16:15:21.353Z,52.46
2024-02-02T16:17:49.866Z,51.66
2024-02-02T16:20:18.286Z,51.93
2024-02-02T16:22:46.814Z,51.43
2024-02-02T16:25:18.981Z,51.26
2024-02-02T16:27:47.659Z,50.95
2024-02-02T16:30:18.031Z,50.77
2024-02-02T16:32:46.913Z,50.47
2024-02-02T16:35:15.323Z,50.71
2024-02-02T16:37:44.607Z,50.50
2024-02-02T16:40:14.245Z,50.87
2024-02-02T16:42:44.625Z,50.70
2024-02-02T16:45:14.982Z,50.42
2024-02-02T16:47:43.419Z,50.22
2024-02-02T16:50:12.193Z,50.29
2024-02-02T16:52:41.360Z,50.13
2024-02-02T16:55:09.730Z,49.80
2024-02-02T16:57:40.140Z,49.94
2024-02-02T17:00:10.248Z,49.64
2024-02-02T17:02:40.045Z,49.63
2024-02-02T17:05:09.300Z,48.98
2024-02-02T17:07:38.062Z,49.19
2024-02-02T17:10:07.107Z,49.08
2024-02-02T17:12:37.348Z,49.04
2024-02-02T17:15:06.263Z,49.26
2024-02-02T17:17:35.854Z,49.16
2024-02-02T17:20:09.410Z,49.09
2024-02-02T17:22:44.476Z,48.61
2024-02-02T17:25:14.036Z,48.41
2024-02-02T17:27:43.135Z,48.40
2024-02-02T17:30:18.505Z,48.22
2024-02-02T17:32:48.644Z,48.19
2024-02-02T17:35:17.777Z,48.12
2024-02-02T17:37:46.052Z,48.02
2024-02-02T17:40:17.096Z,48.54
2024-02-02T17:42:45.452Z,47.93
2024-02-02T17:45:14.169Z,47.98
2024-02-02T17:47:43.276Z,47.80
2024-02-02T17:50:12.329Z,47.71
2024-02-02T17:52:41.041Z,47.48
2024-02-02T17:55:09.947Z,47.28
2024-02-02T17:57:38.429Z,47.23
2024-02-02T18:00:07.476Z,47.49
2024-02-02T18:02:39.962Z,47.26
2024-02-02T18:05:08.488Z,47.33
2024-02-02T18:07:44.589Z,47.38
2024-02-02T18:10:17.083Z,47.25
2024-02-02T18:12:45.475Z,46.96
2024-02-02T18:15:14.356Z,47.06
2024-02-02T18:17:42.908Z,46.70
2024-02-02T18:20:12.238Z,46.49
2024-02-02T18:22:40.932Z,46.45
2024-02-02T18:25:09.487Z,46.62
2024-02-02T18:27:38.790Z,46.58
2024-02-02T18:30:08.189Z,46.52
2024-02-02T18:32:37.590Z,46.57
2024-02-02T18:35:08.402Z,46.40
2024-02-02T18:37:36.757Z,46.23
2024-02-02T18:40:05.506Z,46.02
2024-02-02T18:42:34.795Z,46.06
2024-02-02T18:45:04.546Z,46.16
2024-02-02T18:47:35.412Z,45.84
2024-02-02T18:50:06.793Z,46.03
2024-02-02T18:52:35.702Z,45.79
2024-02-02T18:55:05.384Z,45.76
2024-02-02T18:57:34.567Z,45.65
2024-02-02T19:00:03.753Z,45.79
2024-02-02T19:02:34.127Z,45.74
2024-02-02T19:05:03.244Z,45.92
2024-02-02T19:07:34.463Z,45.61
2024-02-02T19:10:05.010Z,45.51
2024-02-02T19:12:35.418Z,45.34
2024-02-02T19:15:08.816Z,45.17
2024-02-02T19:17:38.097Z,45.00
2024-02-02T19:20:13.932Z,45.35
2024-02-02T19:22:42.572Z,45.13
2024-02-02T19:25:10.849Z,45.00
2024-02-02T19:27:39.060Z,44.99
2024-02-02T19:30:07.930Z,45.23
2024-02-02T19:32:37.228Z,45.32
2024-02-02T19:35:08.203Z,45.09
2024-02-02T19:37:36.427Z,45.15
2024-02-02T19:40:05.439Z,45.20
2024-02-02T19:42:34.623Z,45.36
2024-02-02T19:45:03.912Z,45.34
2024-02-02T19:47:32.869Z,45.45
2024-02-02T19:50:01.811Z,45.05
2024-02-02T19:52:33.142Z,45.04
2024-02-02T19:55:05.983Z,45.02
2024-02-02T19:57:34.779Z,45.04
2024-02-02T20:00:04.061Z,45.27
2024-02-02T20:02:35.796Z,45.04
2024-02-02T20:05:04.464Z,45.01
2024-02-02T20:07:35.148Z,45.10
2024-02-02T20:10:05.249Z,44.89
2024-02-02T20:12:34.295Z,45.00
2024-02-02T20:15:04.738Z,45.16
2024-02-02T20:17:33.948Z,45.09
2024-02-02T20:20:04.152Z,45.08
2024-02-02T20:22:36.126Z,45.03
2024-02-02T20:25:05.286Z,45.04
2024-02-02T20:27:34.293Z,44.87
2024-02-02T20:30:02.948Z,44.86
2024-02-02T20:32:32.944Z,44.79
2024-02-02T20:35:01.654Z,44.98
2024-02-02T20:37:32.374Z,44.80
2024-02-02T20:40:01.187Z,44.68
2024-02-02T20:42:30.025Z,44.70
2024-02-02T20:45:02.067Z,44.59
2024-02-02T20:47:32.597Z,44.79
2024-02-02T20:50:02.541Z,44.84
2024-02-02T20:52:32.361Z,44.94
2024-02-02T20:55:04.855Z,44.75
2024-02-02T20:57:34.625Z,44.91
2024-02-02T21:00:03.765Z,45.12
2024-02-02T21:02:32.587Z,44.68
2024-02-02T21:05:03.234Z,44.75
2024-02-02T21:07:32.765Z,44.33
2024-02-02T21:10:03.034Z,44.36
2024-02-02T21:12:32.573Z,44.32
2024-02-02T21:15:02.842Z,44.34
2024-02-02T21:17:33.933Z,44.31
2024-02-02T21:20:02.805Z,44.17
2024-02-02T21:22:34.946Z,44.01
2024-02-02T21:25:06.298Z,44.04
2024-02-02T21:27:34.749Z,44.17
2024-02-02T21:30:03.758Z,44.37
2024-02-02T21:32:34.138Z,44.45
2024-02-02T21:35:04.057Z,44.34
2024-02-02T21:37:35.474Z,44.18
2024-02-02T21:40:07.021Z,43.88
2024-02-02T21:42:35.282Z,43.96
2024-02-02T21:45:05.762Z,44.16
2024-02-02T21:47:34.367Z,43.90
2024-02-02T21:50:05.182Z,43.97
2024-02-02T21:52:36.041Z,43.90
2024-02-02T21:55:04.550Z,44.04
2024-02-02T21:57:34.054Z,44.02
2024-02-02T22:00:04.231Z,43.84
2024-02-02T22:02:34.840Z,44.15
2024-02-02T22:05:04.062Z,43.80
2024-02-02T22:07:33.104Z,43.90
2024-02-02T22:10:02.617Z,43.79
2024-02-02T22:12:31.243Z,43.81
2024-02-02T22:15:01.001Z,44.09
2024-02-02T22:17:33.646Z,44.18
2024-02-02T22:20:02.988Z,44.00
2024-02-02T22:22:32.322Z,43.91
2024-02-02T22:25:00.650Z,44.03
2024-02-02T22:27:34.960Z,44.01
2024-02-02T22:30:07.676Z,44.04
2024-02-02T22:32:37.523Z,43.97
2024-02-02T22:35:06.909Z,43.75
2024-02-02T22:37:36.051Z,43.68
2024-02-02T22:40:05.624Z,44.08
2024-02-02T22:42:35.998Z,43.78
2024-02-02T22:45:05.485Z,43.55
2024-02-02T22:47:34.527Z,43.73
2024-02-02T22:50:05.696Z,43.64
2024-02-02T22:52:35.150Z,43.64
2024-02-02T22:55:04.831Z,43.81
2024-02-02T22:57:34.103Z,43.67
2024-02-02T23:00:06.422Z,43.75
2024-02-02T23:02:35.652Z,44.03
2024-02-02T23:05:05.188Z,43.42
2024-02-02T23:07:34.548Z,43.49
2024-02-02T23:10:04.192Z,43.53
2024-02-02T23:12:32.585Z,43.67
2024-02-02T23:15:02.471Z,43.71
2024-02-02T23:17:33.956Z,43.54
2024-02-02T23:20:02.708Z,43.74
2024-02-02T23:22:33.826Z,43.55
2024-02-02T23:25:02.677Z,43.67
2024-02-02T23:27:31.697Z,43.62
2024-02-02T23:30:00.851Z,43.60
2024-02-02T23:32:30.626Z,43.95
2024-02-02T23:35:01.992Z,43.94
2024-02-02T23:37:31.040Z,43.53
2024-02-02T23:40:03.060Z,43.76
2024-02-02T23:42:32.284Z,43.51
2024-02-02T23:45:00.816Z,43.47
2024-02-02T23:47:30.211Z,43.48
2024-02-02T23:49:59.129Z,43.29
2024-02-02T23:52:27.349Z,43.47
2024-02-02T23:54:56.335Z,43.46
2024-02-02T23:57:26.205Z,43.53
2024-02-02T23:59:54.548Z,43.61
